ADDS METAR Data INFO
IDs: Format: Raw Decoded Include TAF

Data at: 0835 UTC 21 Oct 2017

KMRT 210814Z AUTO 00000KT 10SM CLR 09/07 A3021 RMK AO2 T00860072
KMRT 210753Z AUTO 00000KT 10SM CLR 09/08 A3020 RMK AO2 T00900075
KMRT 210734Z AUTO 00000KT 10SM CLR 09/07 A3021 RMK AO2 T00900073
KMRT 210714Z AUTO 00000KT 10SM CLR 09/07 A3021 RMK AO2 T00910073
KMRT 210653Z AUTO 00000KT 10SM CLR 10/08 A3022 RMK AO2 T00950075
KMRT 210634Z AUTO 00000KT 10SM CLR 10/07 A3022 RMK AO2 T00990072
KMRT 210614Z AUTO 00000KT 10SM CLR 10/07 A3022 RMK AO2 T01040068
KMRT 210553Z AUTO 21004KT 10SM CLR 12/07 A3021 RMK AO2 T01150072 10171 20091 402410042
KMRT 210534Z AUTO 20005KT 10SM CLR 12/08 A3021 RMK AO2 T01200076
KMRT 210514Z AUTO 19003KT 10SM CLR 13/08 A3021 RMK AO2 T01260075
KMRT 210453Z AUTO 19005KT 10SM CLR 13/07 A3021 RMK AO2 T01300071
KMRT 210434Z AUTO 19005KT 10SM CLR 12/07 A3022 RMK AO2 T01200069
KMRT 210414Z AUTO 22004KT 10SM CLR 10/06 A3021 RMK AO2 T01000062
KMRT 210353Z AUTO 22005KT 10SM CLR 10/06 A3022 RMK AO2 T00960060
KMRT 210334Z AUTO 22005KT 10SM CLR 13/06 A3022 RMK AO2 T01270064
KMRT 210314Z AUTO 19003KT 10SM CLR 15/06 A3021 RMK AO2 T01540062
KMRT 210253Z AUTO 18003KT 10SM CLR 14/07 A3021 RMK AO2 T01430065
KMRT 210234Z AUTO 17003KT 10SM CLR 16/06 A3021 RMK AO2 T01620058
KMRT 210213Z AUTO 18004KT 10SM CLR 16/06 A3021 RMK AO2 T01570060
KMRT 210154Z AUTO 17003KT 10SM CLR 16/06 A3020 RMK AO2 T01560061
KMRT 210134Z AUTO 17003KT 10SM CLR 16/06 A3020 RMK AO2 T01640060
KMRT 210113Z AUTO 00000KT 10SM CLR 16/06 A3021 RMK AO2 T01570061
KMRT 210054Z AUTO 17003KT 10SM CLR 17/06 A3021 RMK AO2 T01700060
KMRT 210034Z AUTO 19003KT 10SM CLR 15/07 A3021 RMK AO2 T01500065
KMRT 210013Z AUTO 00000KT 10SM CLR 15/07 A3021 RMK AO2 T01450066
KMRT 202354Z AUTO 00000KT 10SM CLR 15/07 A3021 RMK AO2 T01540071 10241 20144
KMRT 202334Z AUTO 00000KT 10SM CLR 15/08 A3021 RMK AO2 T01520075
KMRT 202313Z AUTO 00000KT 10SM CLR 17/07 A3021 RMK AO2 T01690074
KMRT 202254Z AUTO 00000KT 10SM CLR 20/07 A3021 RMK AO2 T01950070
KMRT 202234Z AUTO 00000KT 10SM CLR 21/07 A3020 RMK AO2 T02050072
KMRT 202213Z AUTO 15003KT 10SM CLR 21/07 A3020 RMK AO2 T02140071
KMRT 202154Z AUTO 14004KT 10SM CLR 22/07 A3020 RMK AO2 T02240071
KMRT 202134Z AUTO 14004KT 10SM CLR 23/07 A3020 RMK AO2 T02300070
KMRT 202113Z AUTO 15003KT 10SM CLR 23/07 A3021 RMK AO2 T02320068
KMRT 202054Z AUTO 18005KT 10SM CLR 24/07 A3021 RMK AO2 T02360066
KMRT 202034Z AUTO 16004KT 10SM CLR 24/06 A3022 RMK AO2 T02380063
KMRT 202013Z AUTO 15003KT 10SM CLR 24/06 A3022 RMK AO2 T02370061
KMRT 201954Z AUTO 00000KT 10SM CLR 24/07 A3022 RMK AO2 T02390066
KMRT 201934Z AUTO 15003KT 10SM CLR 24/06 A3022 RMK AO2 T02360064
KMRT 201913Z AUTO 15003KT 10SM CLR 23/06 A3023 RMK AO2 T02340062
KMRT 201854Z AUTO 17003KT 10SM CLR 24/06 A3024 RMK AO2 T02360061
KMRT 201834Z AUTO 17005KT 10SM CLR 23/06 A3025 RMK AO2 T02300061
KMRT 201813Z AUTO 20006KT 10SM CLR 23/06 A3026 RMK AO2 T02290062
KMRT 201754Z AUTO 21005KT 10SM CLR 22/06 A3027 RMK AO2 T02240058 10225 20042
KMRT 201734Z AUTO 21004KT 10SM CLR 22/08 A3028 RMK AO2 T02180076
KMRT 201713Z AUTO 00000KT 10SM CLR 22/07 A3029 RMK AO2 T02150069
KMRT 201654Z AUTO 22003KT 10SM CLR 21/05 A3030 RMK AO2 T02140054
KMRT 201634Z AUTO 20005KT 10SM CLR 21/05 A3031 RMK AO2 T02070048
KMRT 201613Z AUTO 17003KT 10SM CLR 20/03 A3032 RMK AO2 T02010032
KMRT 201554Z AUTO 21005KT 10SM CLR 20/01 A3032 RMK AO2 T01970014
KMRT 201534Z AUTO 18004KT 10SM CLR 19/03 A3032 RMK AO2 T01900026
KMRT 201513Z AUTO 22003KT 10SM CLR 18/05 A3033 RMK AO2 T01800046
KMRT 201454Z AUTO 29006KT 10SM CLR 18/05 A3033 RMK AO2 T01770048
KMRT 201434Z AUTO 19003KT 10SM CLR 16/06 A3033 RMK AO2 T01630058
KMRT 201413Z AUTO 00000KT 10SM CLR 15/07 A3032 RMK AO2 T01490071
KMRT 201354Z AUTO 00000KT 10SM CLR 14/08 A3033 RMK AO2 T01360081
KMRT 201334Z AUTO 00000KT 10SM CLR 12/09 A3032 RMK AO2 T01190091
KMRT 201313Z AUTO 00000KT 7SM CLR 10/09 A3032 RMK AO2 T01000092
KMRT 201254Z AUTO 00000KT 5SM CLR 08/08 A3031 RMK AO2 T00840080
KMRT 201234Z AUTO 00000KT 4SM CLR 06/06 A3030 RMK AO2 T00630060
KMRT 201213Z AUTO 00000KT 5SM CLR 05/04 A3029 RMK AO2 T00450040
KMRT 201154Z AUTO 00000KT 7SM CLR 06/06 A3029 RMK AO2 T00590056 10087 20047
KMRT 201134Z AUTO 00000KT 4SM CLR 06/06 A3028 RMK AO2 T00600056
KMRT 201113Z AUTO 00000KT 5SM CLR 06/06 A3028 RMK AO2 T00640061
KMRT 201054Z AUTO 00000KT 5SM CLR 05/04 A3028 RMK AO2 T00480044
KMRT 201034Z AUTO 00000KT 7SM CLR 05/05 A3027 RMK AO2 T00500045
KMRT 201013Z AUTO 00000KT 10SM CLR 08/07 A3026 RMK AO2 T00750071
KMRT 200954Z AUTO 00000KT 10SM CLR 06/06 A3026 RMK AO2 T00630060
KMRT 200934Z AUTO 00000KT 7SM CLR 07/06 A3025 RMK AO2 T00660062
KMRT 200913Z AUTO 25003KT 7SM CLR 06/06 A3025 RMK AO2 T00610057
KMRT 200854Z AUTO 00000KT 7SM CLR 06/05 A3025 RMK AO2 T00600052
KMRT 200834Z AUTO 00000KT 10SM CLR 08/08 A3025 RMK AO2 T00820078
KMRT 200813Z AUTO 00000KT 7SM CLR 08/07 A3025 RMK AO2 T00780074
KMRT 200754Z AUTO 00000KT 7SM CLR 07/06 A3025 RMK AO2 T00660061
KMRT 200734Z AUTO 00000KT 7SM CLR 07/06 A3024 RMK AO2 T00670062
KMRT 200713Z AUTO 00000KT 10SM CLR 07/07 A3024 RMK AO2 T00720067
KMRT 200654Z AUTO 00000KT 7SM CLR 07/06 A3024 RMK AO2 T00680063
KMRT 200634Z AUTO 00000KT 7SM CLR 08/07 A3023 RMK AO2 T00750069
KMRT 200613Z AUTO 00000KT 10SM CLR 08/07 A3023 RMK AO2 T00770068
KMRT 200554Z AUTO 00000KT 10SM CLR 09/08 A3022 RMK AO2 T00890080 10146 20089 402330044
KMRT 200534Z AUTO 00000KT 10SM CLR 10/09 A3022 RMK AO2 T00990090
KMRT 200513Z AUTO 22003KT 10SM CLR 09/08 A3022 RMK AO2 T00920082
KMRT 200454Z AUTO 22003KT 10SM CLR 09/08 A3022 RMK AO2 T00920080
KMRT 200434Z AUTO 00000KT 10SM CLR 10/09 A3022 RMK AO2 T01000089
KMRT 200413Z AUTO 00000KT 10SM CLR 10/09 A3022 RMK AO2 T00990086
KMRT 200354Z AUTO 00000KT 10SM CLR 10/09 A3022 RMK AO2 T01010087
KMRT 200334Z AUTO 00000KT 10SM CLR 11/09 A3021 RMK AO2 T01070091
KMRT 200313Z AUTO 24003KT 10SM CLR 10/08 A3020 RMK AO2 T00990084
KMRT 200254Z AUTO 24003KT 10SM CLR 12/10 A3020 RMK AO2 T01210095
KMRT 200234Z AUTO 26003KT 10SM CLR 12/10 A3020 RMK AO2 T01180095
KMRT 200213Z AUTO 00000KT 10SM CLR 13/10 A3020 RMK AO2 T01250096
KMRT 200154Z AUTO 00000KT 10SM CLR 12/09 A3020 RMK AO2 T01150093
KMRT 200134Z AUTO 22005KT 10SM CLR 12/09 A3020 RMK AO2 T01160093
KMRT 200113Z AUTO 23003KT 10SM CLR 13/10 A3020 RMK AO2 T01250095
KMRT 200054Z AUTO 00000KT 10SM CLR 15/10 A3020 RMK AO2 T01460101
KMRT 200033Z AUTO 24003KT 10SM CLR 13/10 A3020 RMK AO2 T01300096
KMRT 200013Z AUTO 22004KT 10SM CLR 13/09 A3020 RMK AO2 T01300094
KMRT 192354Z AUTO 24003KT 10SM CLR 14/10 A3019 RMK AO2 T01410100 10233 20141
KMRT 192333Z AUTO 24005KT 10SM CLR 17/10 A3018 RMK AO2 T01680103
KMRT 192313Z AUTO 25005KT 10SM CLR 18/10 A3018 RMK AO2 T01760103
KMRT 192254Z AUTO 24006KT 10SM CLR 18/10 A3017 RMK AO2 T01810102
KMRT 192233Z AUTO 24006KT 10SM CLR 20/10 A3017 RMK AO2 T01950102
KMRT 192216Z AUTO 24008KT 10SM CLR 21/10 A3017 RMK AO2 T02050100
KMRT 192159Z AUTO 24007KT 10SM CLR 21/10 A3017 RMK AO1
KMRT 192139Z AUTO 24009KT 10SM CLR 22/10 A3017 RMK AO1
KMRT 192119Z AUTO 24009KT 10SM CLR 22/10 A3017 RMK AO1
KMRT 192059Z AUTO 23011KT 10SM CLR 23/09 A3016 RMK AO1
KMRT 192039Z AUTO 24011G14KT 10SM CLR 23/09 A3017 RMK AO1